createdAt,value
2023-03-29T00:02:02.406Z,7.00
2023-03-29T00:04:29.345Z,7.20
2023-03-29T00:06:56.162Z,6.80
2023-03-29T00:09:23.473Z,6.80
2023-03-29T00:11:50.324Z,6.90
2023-03-29T00:14:17.030Z,7.10
2023-03-29T00:16:44.945Z,7.20
2023-03-29T00:19:11.762Z,7.20
2023-03-29T00:21:38.468Z,7.30
2023-03-29T00:24:05.454Z,7.30
2023-03-29T00:26:32.111Z,7.30
2023-03-29T00:28:58.727Z,7.30
2023-03-29T00:31:26.127Z,7.30
2023-03-29T00:33:53.021Z,7.30
2023-03-29T00:36:19.845Z,7.20
2023-03-29T00:38:46.720Z,7.10
2023-03-29T00:41:14.047Z,6.90
2023-03-29T00:43:51.882Z,6.80
2023-03-29T00:46:18.686Z,6.70
2023-03-29T00:48:45.448Z,6.60
2023-03-29T00:51:14.698Z,6.60
2023-03-29T00:53:49.341Z,6.40
2023-03-29T00:56:24.216Z,6.40
2023-03-29T00:58:57.226Z,6.40
2023-03-29T01:01:54.884Z,6.40
2023-03-29T01:04:25.219Z,6.50
2023-03-29T01:07:04.338Z,6.20
2023-03-29T01:09:34.195Z,6.20
2023-03-29T01:12:08.240Z,6.20
2023-03-29T01:14:43.889Z,6.20
2023-03-29T01:17:10.914Z,6.30
2023-03-29T01:19:44.206Z,6.00
2023-03-29T01:22:33.952Z,6.20
2023-03-29T01:25:11.180Z,6.20
2023-03-29T01:28:02.477Z,6.00
2023-03-29T01:30:37.290Z,6.10
2023-03-29T01:33:10.605Z,6.30
2023-03-29T01:35:43.814Z,6.40
2023-03-29T01:38:20.638Z,6.40
2023-03-29T01:40:47.376Z,6.20
2023-03-29T01:43:29.781Z,6.10
2023-03-29T01:46:12.436Z,6.30
2023-03-29T01:48:46.841Z,6.60
2023-03-29T01:51:29.338Z,6.40
2023-03-29T01:54:11.334Z,6.40
2023-03-29T01:56:43.234Z,6.50
2023-03-29T01:59:22.798Z,6.50
2023-03-29T02:01:53.684Z,6.40
2023-03-29T02:04:25.674Z,6.50
2023-03-29T02:06:54.640Z,6.50
2023-03-29T02:09:22.221Z,6.60
2023-03-29T02:11:51.387Z,6.50
2023-03-29T02:14:18.040Z,6.40
2023-03-29T02:16:46.329Z,6.30
2023-03-29T02:19:15.220Z,6.60
2023-03-29T02:22:01.879Z,6.60
2023-03-29T02:24:32.233Z,6.60
2023-03-29T02:27:00.123Z,6.60
2023-03-29T02:29:27.454Z,6.60
2023-03-29T02:32:02.094Z,6.40
2023-03-29T02:34:38.917Z,6.50
2023-03-29T02:37:11.626Z,6.60
2023-03-29T02:39:39.321Z,6.80
2023-03-29T02:42:07.446Z,6.80
2023-03-29T02:44:39.180Z,6.90
2023-03-29T02:47:31.978Z,6.90
2023-03-29T02:49:59.949Z,7.00
2023-03-29T02:52:34.111Z,7.00
2023-03-29T02:55:03.111Z,6.80
2023-03-29T02:57:32.174Z,6.90
2023-03-29T02:59:59.899Z,6.80
2023-03-29T03:02:27.757Z,6.80
2023-03-29T03:04:54.585Z,6.80
2023-03-29T03:07:21.387Z,6.90
2023-03-29T03:09:48.884Z,6.90
2023-03-29T03:12:15.556Z,7.10
2023-03-29T03:14:42.165Z,6.80
2023-03-29T03:17:08.799Z,6.90
2023-03-29T03:19:36.238Z,7.00
2023-03-29T03:22:03.157Z,7.00
2023-03-29T03:24:29.786Z,7.10
2023-03-29T03:26:57.509Z,7.20
2023-03-29T03:29:28.422Z,7.20
2023-03-29T03:31:55.626Z,7.20
2023-03-29T03:34:23.022Z,7.20
2023-03-29T03:36:56.849Z,7.30
2023-03-29T03:39:23.469Z,7.30
2023-03-29T03:41:50.181Z,7.30
2023-03-29T03:44:17.198Z,7.30
2023-03-29T03:46:43.802Z,7.40
2023-03-29T03:49:10.469Z,7.30
2023-03-29T03:51:37.218Z,7.40
2023-03-29T03:54:03.928Z,7.40
2023-03-29T03:56:30.544Z,7.40
2023-03-29T03:58:57.362Z,7.40
2023-03-29T04:01:24.442Z,7.50
2023-03-29T04:03:51.255Z,7.50
2023-03-29T04:06:18.157Z,7.50
2023-03-29T04:08:45.529Z,7.50
2023-03-29T04:11:12.349Z,7.50
2023-03-29T04:13:39.072Z,7.50
2023-03-29T04:16:07.138Z,7.50
2023-03-29T04:18:33.995Z,7.50
2023-03-29T04:21:01.088Z,7.50
2023-03-29T04:23:28.550Z,7.50
2023-03-29T04:25:59.340Z,7.60
2023-03-29T04:28:25.944Z,7.60
2023-03-29T04:30:52.763Z,7.70
2023-03-29T04:33:19.529Z,7.70
2023-03-29T04:35:49.322Z,7.70
2023-03-29T04:38:16.726Z,7.80
2023-03-29T04:40:44.201Z,7.80
2023-03-29T04:43:11.061Z,7.70
2023-03-29T04:45:38.086Z,7.70
2023-03-29T04:48:05.514Z,7.70
2023-03-29T04:50:32.293Z,7.70
2023-03-29T04:53:00.347Z,7.80
2023-03-29T04:55:27.097Z,7.80
2023-03-29T04:57:53.972Z,7.80
2023-03-29T05:00:26.951Z,7.80
2023-03-29T05:02:53.978Z,7.80
2023-03-29T05:05:21.105Z,7.80
2023-03-29T05:07:47.950Z,7.90
2023-03-29T05:10:14.959Z,7.90
2023-03-29T05:12:41.768Z,7.90
2023-03-29T05:15:10.473Z,8.00
2023-03-29T05:17:37.308Z,8.00
2023-03-29T05:20:10.272Z,8.40
2023-03-29T05:22:38.233Z,8.00
2023-03-29T05:25:06.282Z,7.50
2023-03-29T05:27:33.507Z,7.60
2023-03-29T05:30:01.666Z,7.70
2023-03-29T05:32:28.532Z,7.70
2023-03-29T05:34:55.242Z,7.80
2023-03-29T05:37:22.010Z,7.80
2023-03-29T05:39:49.626Z,7.80
2023-03-29T05:42:19.149Z,7.80
2023-03-29T05:44:45.823Z,7.70
2023-03-29T05:47:12.619Z,7.60
2023-03-29T05:49:39.511Z,7.70
2023-03-29T05:52:06.694Z,7.80
2023-03-29T05:54:33.742Z,7.70
2023-03-29T05:57:00.414Z,7.90
2023-03-29T05:59:29.631Z,7.90
2023-03-29T06:01:56.743Z,7.90
2023-03-29T06:04:24.401Z,7.70
2023-03-29T06:06:52.995Z,7.80
2023-03-29T06:09:19.944Z,7.60
2023-03-29T06:11:47.610Z,7.60
2023-03-29T06:14:14.703Z,7.60
2023-03-29T06:16:42.809Z,7.80
2023-03-29T06:19:09.738Z,7.90
2023-03-29T06:21:36.499Z,7.90
2023-03-29T06:24:04.054Z,7.90
2023-03-29T06:26:31.278Z,8.00
2023-03-29T06:28:58.271Z,8.00
2023-03-29T06:31:25.204Z,8.10
2023-03-29T06:33:51.921Z,8.20
2023-03-29T06:36:20.197Z,8.20
2023-03-29T06:38:47.144Z,8.20
2023-03-29T06:41:14.854Z,8.20
2023-03-29T06:43:41.868Z,8.20
2023-03-29T06:46:11.822Z,8.20
2023-03-29T06:48:39.819Z,8.20
2023-03-29T06:51:07.612Z,8.40
2023-03-29T06:53:34.979Z,8.40
2023-03-29T06:56:05.457Z,8.50
2023-03-29T06:58:32.437Z,8.60
2023-03-29T07:01:02.579Z,8.70
2023-03-29T07:03:29.952Z,8.80
2023-03-29T07:06:03.562Z,8.80
2023-03-29T07:08:35.213Z,8.90
2023-03-29T07:11:03.264Z,8.90
2023-03-29T07:13:30.457Z,9.00
2023-03-29T07:15:57.419Z,9.10
2023-03-29T07:18:24.212Z,9.10
2023-03-29T07:20:52.191Z,9.10
2023-03-29T07:23:19.334Z,9.10
2023-03-29T07:25:46.973Z,9.20
2023-03-29T07:28:13.729Z,9.30
2023-03-29T07:30:40.549Z,9.40
2023-03-29T07:33:08.378Z,9.40
2023-03-29T07:35:35.273Z,9.50
2023-03-29T07:38:02.007Z,9.50
2023-03-29T07:40:29.357Z,9.50
2023-03-29T07:42:59.224Z,9.60
2023-03-29T07:45:31.544Z,9.60
2023-03-29T07:47:59.519Z,9.60
2023-03-29T07:50:32.537Z,9.70
2023-03-29T07:53:00.855Z,9.70
2023-03-29T07:55:27.706Z,9.80
2023-03-29T07:57:54.676Z,9.90
2023-03-29T08:00:22.381Z,9.90
2023-03-29T08:02:52.282Z,10.00
2023-03-29T08:05:37.817Z,10.10
2023-03-29T08:08:08.147Z,10.20
2023-03-29T08:10:37.134Z,10.10
2023-03-29T08:13:08.351Z,10.20
2023-03-29T08:15:38.422Z,10.30
2023-03-29T08:18:06.589Z,10.20
2023-03-29T08:20:33.425Z,10.20
2023-03-29T08:23:00.158Z,10.30
2023-03-29T08:25:27.103Z,10.30
2023-03-29T08:27:54.079Z,10.30
2023-03-29T08:30:20.953Z,10.40
2023-03-29T08:32:50.946Z,10.40
2023-03-29T08:35:19.347Z,10.30
2023-03-29T08:37:46.020Z,10.30
2023-03-29T08:40:21.590Z,10.40
2023-03-29T08:42:57.171Z,10.40
2023-03-29T08:45:33.805Z,10.40
2023-03-29T08:48:26.255Z,10.40
2023-03-29T08:51:27.355Z,10.40
2023-03-29T08:54:07.365Z,10.40
2023-03-29T08:56:38.419Z,10.40
2023-03-29T08:59:12.553Z,10.40
2023-03-29T09:01:39.750Z,10.40
2023-03-29T09:04:25.374Z,10.40
2023-03-29T09:06:52.787Z,10.50
2023-03-29T09:09:22.590Z,10.60
2023-03-29T09:12:03.990Z,10.60
2023-03-29T09:14:39.766Z,10.60
2023-03-29T09:17:25.612Z,10.60
2023-03-29T09:20:00.056Z,10.70
2023-03-29T09:22:53.534Z,10.80
2023-03-29T09:25:50.981Z,11.00
2023-03-29T09:28:28.006Z,11.20
2023-03-29T09:31:01.476Z,11.10
2023-03-29T09:33:42.601Z,11.00
2023-03-29T09:36:23.226Z,11.10
2023-03-29T09:38:54.191Z,11.20
2023-03-29T09:41:27.034Z,11.10
2023-03-29T09:43:55.958Z,11.20
2023-03-29T09:46:36.349Z,11.30
2023-03-29T09:49:06.661Z,11.40
2023-03-29T09:51:34.417Z,11.50
2023-03-29T09:54:01.262Z,11.60
2023-03-29T09:56:29.596Z,11.60
2023-03-29T09:58:56.391Z,11.80
2023-03-29T10:01:23.134Z,11.80
2023-03-29T10:03:53.596Z,11.90
2023-03-29T10:06:23.761Z,11.80
2023-03-29T10:08:57.649Z,12.00
2023-03-29T10:11:36.923Z,12.20
2023-03-29T10:14:27.793Z,12.20
2023-03-29T10:16:58.154Z,12.40
2023-03-29T10:19:35.680Z,12.70
2023-03-29T10:22:13.627Z,12.80
2023-03-29T10:24:40.316Z,12.80
2023-03-29T10:27:11.709Z,12.80
2023-03-29T10:29:43.170Z,13.10
2023-03-29T10:32:23.233Z,13.30
2023-03-29T10:34:51.349Z,13.30
2023-03-29T10:37:19.717Z,13.20
2023-03-29T10:39:48.018Z,13.20
2023-03-29T10:42:17.305Z,13.30
2023-03-29T10:44:57.181Z,13.40
2023-03-29T10:47:24.729Z,13.60
2023-03-29T10:50:01.525Z,13.70
2023-03-29T10:52:30.008Z,13.70
2023-03-29T10:54:56.942Z,14.00
2023-03-29T10:57:31.827Z,14.00
2023-03-29T11:00:23.333Z,13.90
2023-03-29T11:03:40.743Z,13.90
2023-03-29T11:06:07.850Z,14.20
2023-03-29T11:08:37.183Z,14.30
2023-03-29T11:11:24.370Z,14.40
2023-03-29T11:14:13.937Z,14.40
2023-03-29T11:16:51.015Z,14.60
2023-03-29T11:19:38.511Z,14.70
2023-03-29T11:22:23.161Z,14.80
2023-03-29T11:25:10.127Z,14.90
2023-03-29T11:27:48.434Z,15.10
2023-03-29T11:30:25.954Z,15.30
2023-03-29T11:33:10.793Z,15.60
2023-03-29T11:35:59.851Z,15.50
2023-03-29T11:38:33.060Z,15.50
2023-03-29T11:41:12.805Z,15.60
2023-03-29T11:44:04.109Z,15.70
2023-03-29T11:46:37.926Z,16.10
2023-03-29T11:49:34.369Z,16.20
2023-03-29T11:52:13.813Z,16.20
2023-03-29T11:54:52.562Z,16.20
2023-03-29T11:57:28.568Z,16.40
2023-03-29T12:00:14.879Z,16.50
2023-03-29T12:02:48.291Z,16.50
2023-03-29T12:05:21.350Z,16.40
2023-03-29T12:07:53.628Z,16.50
2023-03-29T12:10:23.795Z,16.40
2023-03-29T12:13:16.795Z,16.50
2023-03-29T12:15:55.356Z,16.50
2023-03-29T12:18:41.783Z,16.50
2023-03-29T12:21:29.960Z,16.50
2023-03-29T12:23:58.303Z,16.50
2023-03-29T12:26:45.147Z,16.50
2023-03-29T12:29:39.648Z,16.60
2023-03-29T12:32:37.873Z,16.80
2023-03-29T12:35:19.187Z,16.90
2023-03-29T12:38:08.523Z,16.90
2023-03-29T12:40:47.308Z,17.00
2023-03-29T12:43:32.641Z,17.10
2023-03-29T12:46:09.375Z,17.00
2023-03-29T12:48:41.505Z,16.80
2023-03-29T12:51:13.898Z,16.60
2023-03-29T12:53:47.198Z,16.60
2023-03-29T12:56:36.237Z,16.70
2023-03-29T12:59:10.779Z,16.70
2023-03-29T13:01:39.297Z,16.60
2023-03-29T13:04:15.253Z,16.60
2023-03-29T13:06:51.181Z,16.80
2023-03-29T13:09:29.729Z,16.70
2023-03-29T13:12:11.786Z,16.50
2023-03-29T13:14:46.382Z,16.20
2023-03-29T13:17:30.908Z,16.20
2023-03-29T13:20:23.771Z,16.10
2023-03-29T13:23:26.452Z,16.40
2023-03-29T13:26:08.099Z,16.40
2023-03-29T13:28:46.816Z,16.50
2023-03-29T13:31:33.622Z,16.40
2023-03-29T13:34:09.510Z,16.30
2023-03-29T13:36:50.912Z,16.20
2023-03-29T13:39:28.525Z,16.20
2023-03-29T13:42:08.843Z,16.40
2023-03-29T13:44:44.857Z,16.30
2023-03-29T13:47:16.286Z,16.30
2023-03-29T13:49:51.618Z,16.20
2023-03-29T13:52:39.336Z,15.90
2023-03-29T13:55:06.220Z,15.80
2023-03-29T13:57:42.479Z,16.00
2023-03-29T14:00:28.486Z,15.90
2023-03-29T14:02:58.499Z,16.10
2023-03-29T14:05:36.504Z,16.30
2023-03-29T14:08:27.038Z,16.40
2023-03-29T14:10:55.181Z,16.50
2023-03-29T14:13:25.834Z,16.70
2023-03-29T14:15:57.215Z,16.70
2023-03-29T14:18:25.889Z,16.60
2023-03-29T14:20:55.454Z,16.60
2023-03-29T14:23:30.252Z,16.60
2023-03-29T14:26:29.931Z,16.60
2023-03-29T14:28:58.015Z,16.60
2023-03-29T14:31:33.942Z,16.50
2023-03-29T14:34:03.333Z,16.50
2023-03-29T14:36:32.459Z,16.50
2023-03-29T14:39:06.317Z,16.60
2023-03-29T14:41:36.715Z,16.40
2023-03-29T14:44:07.567Z,16.50
2023-03-29T14:46:36.457Z,16.50
2023-03-29T14:49:04.984Z,16.10
2023-03-29T14:51:32.091Z,16.10
2023-03-29T14:54:02.845Z,16.10
2023-03-29T14:56:32.616Z,16.00
2023-03-29T14:59:02.487Z,15.80
2023-03-29T15:01:29.372Z,15.80
2023-03-29T15:04:04.391Z,15.80
2023-03-29T15:06:32.651Z,15.80
2023-03-29T15:09:06.601Z,15.70
2023-03-29T15:11:34.552Z,15.60
2023-03-29T15:14:08.551Z,15.80
2023-03-29T15:16:40.636Z,15.50
2023-03-29T15:19:12.737Z,15.60
2023-03-29T15:21:39.686Z,15.70
2023-03-29T15:24:06.710Z,15.70
2023-03-29T15:26:37.657Z,15.80
2023-03-29T15:29:17.274Z,16.00
2023-03-29T15:31:56.127Z,16.10
2023-03-29T15:34:28.016Z,15.90
2023-03-29T15:36:57.283Z,15.90
2023-03-29T15:39:24.514Z,16.00
2023-03-29T15:41:52.783Z,16.00
2023-03-29T15:44:48.855Z,15.80
2023-03-29T15:47:15.612Z,15.90
2023-03-29T15:49:42.344Z,16.00
2023-03-29T15:52:09.002Z,16.10
2023-03-29T15:54:37.129Z,15.80
2023-03-29T15:57:07.288Z,15.80
2023-03-29T15:59:34.842Z,15.50
2023-03-29T16:02:01.803Z,15.50
2023-03-29T16:04:28.654Z,15.60
2023-03-29T16:06:56.000Z,15.60
2023-03-29T16:09:23.524Z,15.70
2023-03-29T16:11:50.696Z,15.60
2023-03-29T16:14:23.083Z,15.60
2023-03-29T16:16:51.373Z,15.50
2023-03-29T16:19:19.534Z,15.40
2023-03-29T16:21:46.378Z,15.50
2023-03-29T16:24:19.957Z,15.50
2023-03-29T16:26:47.336Z,15.60
2023-03-29T16:29:15.995Z,15.50
2023-03-29T16:31:43.561Z,15.50
2023-03-29T16:34:13.028Z,15.50
2023-03-29T16:36:44.218Z,15.50
2023-03-29T16:39:13.117Z,15.50
2023-03-29T16:41:41.451Z,15.70
2023-03-29T16:44:11.197Z,15.70
2023-03-29T16:46:38.109Z,15.70
2023-03-29T16:49:07.854Z,15.30
2023-03-29T16:51:34.758Z,15.40
2023-03-29T16:54:01.458Z,15.50
2023-03-29T16:56:28.730Z,15.30
2023-03-29T16:58:55.758Z,15.20
2023-03-29T17:01:22.816Z,15.20
2023-03-29T17:03:51.913Z,15.20
2023-03-29T17:06:18.960Z,15.30
2023-03-29T17:08:45.884Z,15.20
2023-03-29T17:11:13.071Z,15.30
2023-03-29T17:13:40.356Z,15.30
2023-03-29T17:16:07.712Z,15.30
2023-03-29T17:18:34.659Z,15.30
2023-03-29T17:21:01.713Z,15.40
2023-03-29T17:23:29.432Z,15.30
2023-03-29T17:25:56.218Z,15.40
2023-03-29T17:28:24.272Z,15.50
2023-03-29T17:30:51.786Z,15.60
2023-03-29T17:33:22.497Z,15.50
2023-03-29T17:35:49.826Z,15.60
2023-03-29T17:38:16.736Z,15.60
2023-03-29T17:40:43.493Z,15.50
2023-03-29T17:43:10.344Z,15.20
2023-03-29T17:45:37.619Z,15.20
2023-03-29T17:48:06.545Z,15.20
2023-03-29T17:50:34.217Z,14.90
2023-03-29T17:53:01.037Z,14.70
2023-03-29T17:55:27.924Z,14.60
2023-03-29T17:57:54.843Z,14.70
2023-03-29T18:00:21.960Z,14.80
2023-03-29T18:02:48.940Z,14.80
2023-03-29T18:05:15.930Z,14.80
2023-03-29T18:07:42.631Z,14.80
2023-03-29T18:10:10.070Z,14.90
2023-03-29T18:12:36.875Z,14.80
2023-03-29T18:15:04.214Z,14.80
2023-03-29T18:17:31.533Z,14.80
2023-03-29T18:19:58.241Z,14.70
2023-03-29T18:22:25.307Z,14.50
2023-03-29T18:24:52.356Z,14.50
2023-03-29T18:27:19.732Z,14.50
2023-03-29T18:29:46.633Z,14.50
2023-03-29T18:32:13.702Z,14.50
2023-03-29T18:34:40.473Z,14.40
2023-03-29T18:37:09.301Z,14.40
2023-03-29T18:39:35.963Z,14.50
2023-03-29T18:42:03.367Z,14.50
2023-03-29T18:44:30.088Z,14.50
2023-03-29T18:46:56.856Z,14.50
2023-03-29T18:49:25.694Z,14.50
2023-03-29T18:51:52.513Z,14.50
2023-03-29T18:54:19.348Z,14.40
2023-03-29T18:56:46.209Z,14.40
2023-03-29T18:59:13.678Z,14.20
2023-03-29T19:01:40.614Z,14.20
2023-03-29T19:04:07.351Z,14.10
2023-03-29T19:06:34.174Z,14.10
2023-03-29T19:09:02.317Z,13.90
2023-03-29T19:11:29.701Z,13.90
2023-03-29T19:13:56.660Z,13.90
2023-03-29T19:16:23.832Z,13.80
2023-03-29T19:18:50.821Z,13.70
2023-03-29T19:21:17.617Z,13.70
2023-03-29T19:23:44.485Z,13.70
2023-03-29T19:26:11.571Z,13.60
2023-03-29T19:28:38.449Z,13.60
2023-03-29T19:31:05.468Z,13.80
2023-03-29T19:33:33.002Z,13.80
2023-03-29T19:35:59.837Z,13.80
2023-03-29T19:38:26.766Z,13.90
2023-03-29T19:40:53.615Z,14.00
2023-03-29T19:43:20.934Z,13.90
2023-03-29T19:45:49.629Z,14.00
2023-03-29T19:48:22.334Z,14.00
2023-03-29T19:50:50.657Z,14.00
2023-03-29T19:53:17.564Z,14.00
2023-03-29T19:55:45.331Z,14.00
2023-03-29T19:58:12.894Z,14.00
2023-03-29T20:00:41.714Z,13.90
2023-03-29T20:03:13.960Z,14.00
2023-03-29T20:05:41.097Z,14.00
2023-03-29T20:08:08.213Z,13.90
2023-03-29T20:10:36.192Z,13.90
2023-03-29T20:13:03.261Z,13.90
2023-03-29T20:15:30.062Z,13.80
2023-03-29T20:17:59.448Z,13.80
2023-03-29T20:20:27.439Z,13.80
2023-03-29T20:22:58.106Z,13.70
2023-03-29T20:25:25.933Z,13.70
2023-03-29T20:27:53.192Z,13.60
2023-03-29T20:30:20.332Z,13.70
2023-03-29T20:32:47.384Z,13.80
2023-03-29T20:35:14.342Z,13.80
2023-03-29T20:37:41.139Z,13.70
2023-03-29T20:40:08.925Z,13.70
2023-03-29T20:42:36.790Z,13.80
2023-03-29T20:45:04.527Z,13.80
2023-03-29T20:47:31.546Z,13.80
2023-03-29T20:49:58.851Z,13.80
2023-03-29T20:52:25.720Z,13.80
2023-03-29T20:54:52.687Z,13.70
2023-03-29T20:57:20.839Z,13.70
2023-03-29T20:59:49.273Z,13.70
2023-03-29T21:02:22.132Z,13.70
2023-03-29T21:04:51.731Z,13.70
2023-03-29T21:07:20.248Z,13.60
2023-03-29T21:09:49.966Z,13.60
2023-03-29T21:12:17.375Z,13.70
2023-03-29T21:14:44.652Z,13.70
2023-03-29T21:17:11.443Z,13.70
2023-03-29T21:19:42.208Z,13.50
2023-03-29T21:22:08.983Z,13.50
2023-03-29T21:24:38.408Z,13.60
2023-03-29T21:27:05.788Z,13.60
2023-03-29T21:29:32.533Z,13.60
2023-03-29T21:31:59.413Z,13.60
2023-03-29T21:34:26.126Z,13.70
2023-03-29T21:36:52.853Z,13.70
2023-03-29T21:39:19.574Z,13.70
2023-03-29T21:41:46.325Z,13.70
2023-03-29T21:44:13.175Z,13.70
2023-03-29T21:46:39.965Z,13.60
2023-03-29T21:49:06.774Z,13.60
2023-03-29T21:51:33.586Z,13.60
2023-03-29T21:54:00.277Z,13.70
2023-03-29T21:56:28.106Z,13.80
2023-03-29T21:58:55.294Z,13.80
2023-03-29T22:01:22.009Z,13.90
2023-03-29T22:03:48.755Z,13.90
2023-03-29T22:06:15.753Z,14.00
2023-03-29T22:08:42.496Z,14.00
2023-03-29T22:11:14.600Z,14.00
2023-03-29T22:13:44.196Z,13.90
2023-03-29T22:16:18.472Z,13.90
2023-03-29T22:18:49.198Z,14.00
2023-03-29T22:21:17.574Z,14.10
2023-03-29T22:23:47.162Z,14.10
2023-03-29T22:26:15.738Z,14.20
2023-03-29T22:28:42.751Z,14.20
2023-03-29T22:31:15.630Z,14.20
2023-03-29T22:33:42.712Z,14.20
2023-03-29T22:36:18.638Z,14.30
2023-03-29T22:38:46.471Z,14.30
2023-03-29T22:41:13.903Z,14.30
2023-03-29T22:43:41.227Z,14.30
2023-03-29T22:46:10.032Z,14.30
2023-03-29T22:48:37.169Z,14.20
2023-03-29T22:51:05.528Z,14.30
2023-03-29T22:53:33.271Z,14.20
2023-03-29T22:55:59.925Z,14.30
2023-03-29T22:58:26.719Z,14.30
2023-03-29T23:00:53.369Z,14.30
2023-03-29T23:03:20.026Z,14.40
2023-03-29T23:05:55.028Z,14.40
2023-03-29T23:08:23.009Z,14.40
2023-03-29T23:10:49.770Z,14.40
2023-03-29T23:13:23.561Z,14.50
2023-03-29T23:15:51.671Z,14.60
2023-03-29T23:18:21.012Z,14.60
2023-03-29T23:20:52.980Z,14.50
2023-03-29T23:23:20.390Z,14.50
2023-03-29T23:25:48.771Z,14.50
2023-03-29T23:28:21.364Z,14.40
2023-03-29T23:31:18.234Z,14.30
2023-03-29T23:33:49.400Z,14.30
2023-03-29T23:36:17.886Z,14.40
2023-03-29T23:38:46.013Z,14.40
2023-03-29T23:41:13.458Z,14.40
2023-03-29T23:43:42.403Z,14.40
2023-03-29T23:46:12.222Z,14.50
2023-03-29T23:48:39.293Z,14.50
2023-03-29T23:51:08.069Z,14.60
2023-03-29T23:53:34.724Z,14.50
2023-03-29T23:56:03.853Z,14.50
2023-03-29T23:58:33.235Z,14.50
